createdAt,value
2022-10-17T00:02:00.758Z,13.90
2022-10-17T00:04:27.426Z,12.30
2022-10-17T00:06:54.002Z,13.60
2022-10-17T00:09:20.668Z,12.30
2022-10-17T00:11:47.391Z,12.30
2022-10-17T00:14:13.977Z,12.20
2022-10-17T00:16:40.609Z,13.70
2022-10-17T00:19:07.398Z,12.30
2022-10-17T00:21:33.999Z,12.40
2022-10-17T00:24:00.916Z,14.10
2022-10-17T00:26:29.573Z,13.20
2022-10-17T00:28:56.293Z,12.60
2022-10-17T00:31:23.878Z,12.70
2022-10-17T00:33:50.863Z,12.80
2022-10-17T00:36:18.904Z,13.40
2022-10-17T00:38:46.394Z,13.50
2022-10-17T00:41:15.378Z,13.10
2022-10-17T00:44:00.745Z,12.80
2022-10-17T00:46:28.497Z,12.80
2022-10-17T00:48:56.332Z,14.80
2022-10-17T00:51:27.623Z,12.80
2022-10-17T00:53:54.339Z,13.70
2022-10-17T00:56:21.207Z,14.10
2022-10-17T00:58:48.302Z,13.10
2022-10-17T01:01:15.188Z,12.50
2022-10-17T01:03:41.997Z,14.20
2022-10-17T01:06:08.611Z,12.40
2022-10-17T01:08:35.217Z,12.30
2022-10-17T01:11:02.110Z,13.90
2022-10-17T01:14:04.460Z,12.40
2022-10-17T01:16:52.242Z,12.40
2022-10-17T01:19:37.358Z,12.50
2022-10-17T01:22:18.078Z,12.50
2022-10-17T01:25:02.016Z,12.50
2022-10-17T01:27:38.024Z,12.50
2022-10-17T01:30:20.010Z,12.50
2022-10-17T01:32:49.650Z,12.60
2022-10-17T01:35:25.543Z,12.60
2022-10-17T01:40:24.476Z,13.30
2022-10-17T01:42:57.201Z,12.60
2022-10-17T01:45:23.862Z,12.60
2022-10-17T01:47:51.621Z,12.70
2022-10-17T01:50:20.377Z,13.90
2022-10-17T01:52:50.937Z,12.70
2022-10-17T01:55:20.302Z,14.00
2022-10-17T01:57:50.120Z,12.80
2022-10-17T02:00:21.344Z,14.00
2022-10-17T02:02:49.545Z,13.80
2022-10-17T02:05:17.352Z,14.60
2022-10-17T02:07:44.029Z,12.80
2022-10-17T02:10:14.026Z,13.40
2022-10-17T02:12:43.372Z,13.70
2022-10-17T02:15:22.056Z,12.70
2022-10-17T02:17:48.646Z,12.70
2022-10-17T02:20:44.739Z,13.60
2022-10-17T02:23:13.781Z,12.60
2022-10-17T02:25:41.608Z,12.60
2022-10-17T02:28:08.153Z,13.80
2022-10-17T02:31:04.162Z,12.60
2022-10-17T02:33:44.212Z,12.50
2022-10-17T02:36:20.016Z,12.50
2022-10-17T02:38:46.840Z,12.50
2022-10-17T02:41:14.925Z,12.50
2022-10-17T02:43:45.278Z,13.90
2022-10-17T02:46:20.688Z,12.60
2022-10-17T02:48:49.211Z,13.80
2022-10-17T02:51:18.818Z,12.90
2022-10-17T02:53:59.741Z,12.30
2022-10-17T02:56:28.816Z,12.30
2022-10-17T02:58:57.315Z,13.20
2022-10-17T03:01:24.841Z,12.00
2022-10-17T03:03:51.767Z,12.10
2022-10-17T03:06:18.341Z,12.00
2022-10-17T03:08:44.900Z,12.80
2022-10-17T03:11:11.468Z,12.00
2022-10-17T03:13:39.868Z,11.60
2022-10-17T03:16:06.714Z,11.50
2022-10-17T03:18:33.287Z,11.40
2022-10-17T03:20:59.881Z,13.20
2022-10-17T03:23:26.524Z,11.20
2022-10-17T03:25:53.115Z,11.10
2022-10-17T03:28:19.738Z,12.60
2022-10-17T03:30:46.432Z,10.90
2022-10-17T03:33:13.005Z,13.20
2022-10-17T03:35:40.471Z,11.90
2022-10-17T03:38:07.119Z,12.50
2022-10-17T03:40:33.693Z,13.10
2022-10-17T03:43:00.265Z,10.90
2022-10-17T03:45:26.911Z,10.90
2022-10-17T03:47:53.557Z,11.00
2022-10-17T03:50:20.129Z,13.30
2022-10-17T03:52:48.304Z,13.20
2022-10-17T03:55:15.493Z,11.80
2022-10-17T03:57:43.454Z,11.10
2022-10-17T04:00:12.541Z,12.70
2022-10-17T04:02:39.136Z,11.10
2022-10-17T04:05:06.041Z,11.20
2022-10-17T04:07:32.652Z,11.10
2022-10-17T04:09:59.298Z,11.20
2022-10-17T04:12:27.024Z,11.90
2022-10-17T04:14:53.862Z,11.40
2022-10-17T04:17:20.635Z,11.40
2022-10-17T04:19:48.983Z,12.10
2022-10-17T04:22:15.753Z,11.20
2022-10-17T04:24:42.406Z,12.10
2022-10-17T04:27:09.059Z,12.80
2022-10-17T04:29:35.809Z,11.70
2022-10-17T04:32:02.415Z,12.40
2022-10-17T04:34:29.132Z,11.80
2022-10-17T04:36:55.861Z,11.00
2022-10-17T04:39:22.482Z,10.90
2022-10-17T04:41:49.085Z,12.50
2022-10-17T04:44:15.761Z,12.10
2022-10-17T04:46:42.414Z,13.00
2022-10-17T04:49:09.052Z,11.50
2022-10-17T04:51:35.667Z,12.70
2022-10-17T04:54:02.250Z,10.70
2022-10-17T04:56:28.902Z,12.00
2022-10-17T04:58:55.479Z,10.50
2022-10-17T05:01:22.901Z,12.20
2022-10-17T05:03:49.883Z,10.60
2022-10-17T05:06:17.676Z,10.60
2022-10-17T05:08:44.487Z,12.10
2022-10-17T05:11:18.573Z,12.30
2022-10-17T05:13:49.172Z,10.60
2022-10-17T05:16:15.782Z,11.50
2022-10-17T05:18:42.344Z,10.70
2022-10-17T05:21:08.914Z,12.00
2022-10-17T05:23:35.533Z,11.60
2022-10-17T05:26:02.182Z,11.00
2022-10-17T05:28:28.994Z,11.30
2022-10-17T05:30:55.761Z,10.70
2022-10-17T05:33:23.425Z,10.60
2022-10-17T05:35:50.810Z,10.60
2022-10-17T05:38:17.433Z,11.10
2022-10-17T05:40:44.028Z,10.60
2022-10-17T05:43:10.697Z,10.60
2022-10-17T05:45:37.443Z,11.40
2022-10-17T05:48:04.250Z,11.70
2022-10-17T05:50:30.844Z,10.60
2022-10-17T05:52:57.503Z,10.70
2022-10-17T05:55:24.220Z,10.50
2022-10-17T05:57:52.633Z,10.60
2022-10-17T06:00:19.998Z,11.00
2022-10-17T06:02:46.875Z,10.60
2022-10-17T06:05:14.141Z,10.60
2022-10-17T06:07:41.174Z,10.60
2022-10-17T06:10:08.053Z,11.80
2022-10-17T06:12:34.741Z,10.50
2022-10-17T06:15:01.333Z,10.60
2022-10-17T06:17:29.163Z,10.60
2022-10-17T06:19:56.054Z,10.60
2022-10-17T06:22:22.786Z,10.60
2022-10-17T06:24:49.565Z,10.60
2022-10-17T06:27:16.257Z,10.60
2022-10-17T06:29:43.094Z,10.70
2022-10-17T06:32:12.635Z,10.70
2022-10-17T06:34:41.693Z,10.70
2022-10-17T06:37:08.310Z,11.20
2022-10-17T06:39:35.278Z,11.30
2022-10-17T06:42:02.427Z,10.80
2022-10-17T06:44:31.640Z,11.60
2022-10-17T06:46:59.024Z,10.90
2022-10-17T06:49:25.805Z,12.30
2022-10-17T06:51:52.483Z,11.10
2022-10-17T06:54:19.189Z,11.30
2022-10-17T06:56:45.794Z,11.30
2022-10-17T06:59:12.537Z,11.40
2022-10-17T07:01:41.783Z,11.50
2022-10-17T07:04:11.268Z,12.30
2022-10-17T07:06:38.539Z,11.80
2022-10-17T07:09:06.944Z,13.30
2022-10-17T07:11:35.089Z,12.00
2022-10-17T07:14:02.323Z,12.10
2022-10-17T07:16:28.993Z,13.30
2022-10-17T07:18:55.769Z,14.10
2022-10-17T07:21:22.474Z,12.40
2022-10-17T07:23:49.171Z,12.50
2022-10-17T07:26:17.024Z,12.60
2022-10-17T07:28:44.340Z,12.70
2022-10-17T07:31:15.445Z,13.80
2022-10-17T07:33:42.376Z,12.90
2022-10-17T07:36:09.404Z,14.40
2022-10-17T07:38:36.057Z,14.80
2022-10-17T07:41:03.780Z,13.30
2022-10-17T07:43:30.782Z,14.10
2022-10-17T07:45:57.438Z,13.40
2022-10-17T07:48:24.766Z,13.60
2022-10-17T07:50:51.522Z,14.90
2022-10-17T07:53:18.442Z,14.00
2022-10-17T07:55:46.392Z,13.80
2022-10-17T07:58:14.031Z,14.80
2022-10-17T08:00:40.797Z,14.00
2022-10-17T08:03:07.643Z,14.10
2022-10-17T08:05:34.292Z,14.30
2022-10-17T08:08:00.860Z,14.30
2022-10-17T08:10:29.305Z,14.40
2022-10-17T08:12:56.606Z,14.50
2022-10-17T08:15:26.808Z,14.90
2022-10-17T08:17:58.302Z,15.00
2022-10-17T08:20:25.027Z,14.90
2022-10-17T08:22:52.550Z,14.90
2022-10-17T08:25:19.237Z,15.00
2022-10-17T08:27:46.035Z,16.50
2022-10-17T08:30:12.667Z,15.20
2022-10-17T08:32:39.295Z,16.30
2022-10-17T08:35:06.185Z,15.40
2022-10-17T08:37:33.131Z,15.50
2022-10-17T08:39:59.965Z,15.70
2022-10-17T08:42:29.783Z,16.90
2022-10-17T08:45:11.677Z,15.90
2022-10-17T08:47:39.832Z,16.00
2022-10-17T08:50:07.853Z,16.20
2022-10-17T08:52:43.669Z,16.30
2022-10-17T08:57:49.745Z,16.50
2022-10-17T09:00:18.821Z,16.80
2022-10-17T09:02:48.617Z,16.60
2022-10-17T09:05:22.445Z,16.60
2022-10-17T09:08:01.546Z,16.70
2022-10-17T09:10:31.310Z,16.80
2022-10-17T09:13:05.334Z,16.90
2022-10-17T09:15:41.822Z,17.00
2022-10-17T09:18:17.568Z,17.00
2022-10-17T09:20:51.507Z,17.10
2022-10-17T09:23:23.000Z,17.30
2022-10-17T09:25:53.851Z,17.20
2022-10-17T09:28:29.641Z,17.20
2022-10-17T09:30:59.511Z,17.30
2022-10-17T09:33:53.759Z,17.30
2022-10-17T09:36:21.201Z,18.00
2022-10-17T09:38:49.507Z,17.50
2022-10-17T09:41:43.082Z,18.10
2022-10-17T09:44:14.044Z,19.00
2022-10-17T09:46:40.805Z,17.60
2022-10-17T09:49:14.895Z,18.50
2022-10-17T09:51:44.086Z,17.80
2022-10-17T09:54:22.295Z,17.80
2022-10-17T09:56:57.924Z,17.90
2022-10-17T09:59:32.262Z,18.00
2022-10-17T10:02:28.908Z,18.10
2022-10-17T10:05:06.348Z,18.10
2022-10-17T10:07:37.869Z,18.20
2022-10-17T10:10:06.359Z,18.20
2022-10-17T10:12:35.302Z,18.30
2022-10-17T10:15:01.974Z,18.30
2022-10-17T10:17:36.632Z,19.80
2022-10-17T10:20:26.708Z,18.40
2022-10-17T10:23:05.154Z,18.40
2022-10-17T10:25:31.878Z,18.50
2022-10-17T10:28:00.680Z,20.20
2022-10-17T10:30:29.928Z,18.70
2022-10-17T10:32:57.525Z,18.70
2022-10-17T10:35:28.501Z,19.80
2022-10-17T10:37:56.438Z,18.90
2022-10-17T10:40:25.703Z,19.10
2022-10-17T10:42:54.152Z,19.00
2022-10-17T10:45:46.974Z,19.00
2022-10-17T10:48:18.550Z,19.20
2022-10-17T10:50:50.347Z,19.20
2022-10-17T10:53:16.991Z,19.30
2022-10-17T10:55:49.690Z,19.40
2022-10-17T10:58:36.820Z,19.50
2022-10-17T11:01:09.909Z,19.70
2022-10-17T11:06:14.933Z,19.90
2022-10-17T11:08:55.587Z,19.90
2022-10-17T11:11:31.989Z,20.00
2022-10-17T11:14:03.126Z,20.10
2022-10-17T11:16:32.532Z,20.10
2022-10-17T11:19:13.915Z,20.20
2022-10-17T11:21:49.597Z,20.30
2022-10-17T11:24:20.478Z,20.40
2022-10-17T11:26:58.827Z,20.50
2022-10-17T11:29:28.698Z,20.60
2022-10-17T11:31:57.344Z,20.70
2022-10-17T11:34:28.447Z,20.80
2022-10-17T11:36:58.239Z,20.90
2022-10-17T11:39:30.427Z,21.10
2022-10-17T11:42:06.719Z,21.20
2022-10-17T11:44:37.540Z,21.30
2022-10-17T11:47:14.359Z,21.40
2022-10-17T11:49:47.307Z,21.50
2022-10-17T11:52:51.230Z,21.60
2022-10-17T11:55:20.533Z,21.60
2022-10-17T11:58:00.792Z,21.70
2022-10-17T12:00:46.180Z,21.70
2022-10-17T12:03:20.150Z,21.80
2022-10-17T12:05:57.456Z,21.90
2022-10-17T12:08:30.456Z,22.20
2022-10-17T12:11:01.256Z,22.20
2022-10-17T12:13:28.213Z,22.30
2022-10-17T12:15:55.637Z,22.30
2022-10-17T12:18:24.965Z,23.30
2022-10-17T12:20:59.051Z,22.30
2022-10-17T12:23:29.897Z,22.30
2022-10-17T12:26:01.532Z,22.30
2022-10-17T12:28:40.870Z,22.20
2022-10-17T12:31:23.051Z,22.30
2022-10-17T12:33:51.099Z,22.20
2022-10-17T12:36:17.740Z,22.20
2022-10-17T12:38:49.204Z,22.20
2022-10-17T12:41:17.479Z,22.30
2022-10-17T12:43:54.263Z,23.20
2022-10-17T12:46:39.523Z,22.40
2022-10-17T12:49:20.073Z,22.40
2022-10-17T12:52:22.245Z,22.50
2022-10-17T12:55:15.242Z,22.50
2022-10-17T12:57:41.809Z,22.60
2022-10-17T13:00:11.610Z,22.60
2022-10-17T13:02:38.241Z,22.60
2022-10-17T13:05:07.795Z,22.60
2022-10-17T13:07:36.029Z,22.60
2022-10-17T13:10:05.152Z,22.60
2022-10-17T13:12:35.575Z,22.60
2022-10-17T13:15:06.742Z,22.60
2022-10-17T13:17:34.739Z,22.60
2022-10-17T13:20:01.977Z,22.60
2022-10-17T13:22:31.045Z,22.60
2022-10-17T13:25:09.012Z,22.50
2022-10-17T13:27:36.224Z,22.50
2022-10-17T13:30:18.065Z,22.40
2022-10-17T13:32:45.486Z,22.40
2022-10-17T13:35:14.128Z,22.30
2022-10-17T13:37:45.022Z,22.30
2022-10-17T13:40:44.454Z,22.30
2022-10-17T13:43:16.005Z,22.20
2022-10-17T13:45:46.234Z,22.10
2022-10-17T13:48:18.989Z,22.10
2022-10-17T13:50:47.682Z,22.00
2022-10-17T13:53:19.112Z,21.90
2022-10-17T13:56:28.948Z,21.90
2022-10-17T13:59:00.273Z,21.90
2022-10-17T14:01:28.007Z,21.80
2022-10-17T14:04:07.830Z,21.80
2022-10-17T14:06:41.684Z,21.80
2022-10-17T14:09:16.872Z,21.90
2022-10-17T14:11:44.623Z,21.80
2022-10-17T14:14:19.031Z,21.80
2022-10-17T14:16:46.208Z,21.80
2022-10-17T14:19:29.745Z,21.80
2022-10-17T14:22:14.309Z,21.80
2022-10-17T14:24:42.284Z,21.80
2022-10-17T14:27:27.297Z,21.80
2022-10-17T14:29:54.666Z,21.70
2022-10-17T14:32:22.183Z,21.70
2022-10-17T14:34:57.484Z,21.70
2022-10-17T14:37:32.114Z,21.80
2022-10-17T14:39:59.930Z,21.80
2022-10-17T14:42:26.851Z,21.70
2022-10-17T14:44:54.524Z,21.70
2022-10-17T14:47:42.228Z,21.70
2022-10-17T14:50:12.564Z,21.70
2022-10-17T14:52:39.819Z,21.70
2022-10-17T14:55:20.748Z,21.70
2022-10-17T14:57:47.363Z,21.70
2022-10-17T15:00:14.946Z,21.60
2022-10-17T15:02:41.772Z,21.60
2022-10-17T15:05:13.019Z,21.50
2022-10-17T15:07:40.592Z,21.50
2022-10-17T15:10:23.391Z,21.40
2022-10-17T15:12:58.877Z,21.40
2022-10-17T15:15:27.552Z,21.40
2022-10-17T15:17:54.277Z,21.40
2022-10-17T15:20:21.365Z,21.30
2022-10-17T15:22:48.070Z,21.20
2022-10-17T15:25:14.724Z,21.20
2022-10-17T15:27:41.302Z,21.20
2022-10-17T15:30:20.681Z,21.20
2022-10-17T15:32:49.045Z,21.10
2022-10-17T15:35:16.043Z,21.00
2022-10-17T15:37:42.946Z,21.00
2022-10-17T15:40:16.790Z,20.90
2022-10-17T15:42:43.465Z,20.90
2022-10-17T15:45:11.390Z,20.80
2022-10-17T15:47:38.371Z,20.70
2022-10-17T15:50:06.047Z,20.60
2022-10-17T15:52:32.653Z,20.50
2022-10-17T15:55:02.409Z,20.40
2022-10-17T15:57:34.228Z,20.40
2022-10-17T16:00:00.985Z,20.30
2022-10-17T16:02:27.943Z,20.20
2022-10-17T16:04:54.618Z,20.10
2022-10-17T16:07:21.728Z,20.00
2022-10-17T16:09:48.366Z,19.90
2022-10-17T16:12:16.868Z,19.80
2022-10-17T16:14:43.549Z,19.70
2022-10-17T16:17:14.443Z,19.60
2022-10-17T16:19:41.386Z,19.40
2022-10-17T16:22:11.814Z,19.40
2022-10-17T16:24:38.562Z,19.20
2022-10-17T16:27:05.355Z,19.10
2022-10-17T16:29:32.098Z,18.40
2022-10-17T16:31:58.701Z,18.90
2022-10-17T16:34:25.321Z,18.80
2022-10-17T16:36:51.903Z,19.10
2022-10-17T16:39:18.642Z,18.60
2022-10-17T16:41:45.246Z,18.40
2022-10-17T16:44:16.425Z,18.20
2022-10-17T16:46:43.060Z,18.10
2022-10-17T16:49:09.783Z,17.90
2022-10-17T16:51:36.484Z,17.80
2022-10-17T16:54:04.513Z,17.90
2022-10-17T16:56:32.804Z,17.50
2022-10-17T16:59:00.223Z,17.40
2022-10-17T17:01:29.251Z,19.10
2022-10-17T17:03:56.158Z,17.10
2022-10-17T17:06:24.385Z,17.60
2022-10-17T17:08:51.057Z,16.90
2022-10-17T17:11:18.804Z,16.70
2022-10-17T17:13:45.670Z,16.50
2022-10-17T17:16:17.569Z,17.20
2022-10-17T17:18:46.016Z,17.00
2022-10-17T17:21:13.167Z,17.00
2022-10-17T17:23:40.585Z,18.10
2022-10-17T17:26:09.246Z,16.30
2022-10-17T17:28:36.191Z,16.70
2022-10-17T17:31:05.949Z,16.30
2022-10-17T17:33:33.783Z,16.50
2022-10-17T17:36:01.322Z,16.30
2022-10-17T17:38:31.986Z,16.10
2022-10-17T17:40:58.890Z,16.10
2022-10-17T17:43:25.529Z,16.10
2022-10-17T17:45:52.132Z,16.20
2022-10-17T17:48:19.058Z,16.20
2022-10-17T17:50:46.237Z,16.30
2022-10-17T17:53:13.709Z,16.30
2022-10-17T17:55:40.401Z,16.30
2022-10-17T17:58:08.221Z,16.10
2022-10-17T18:00:35.811Z,16.00
2022-10-17T18:03:02.445Z,16.00
2022-10-17T18:05:29.125Z,15.90
2022-10-17T18:07:55.742Z,15.70
2022-10-17T18:10:22.515Z,15.60
2022-10-17T18:12:49.084Z,15.60
2022-10-17T18:15:15.963Z,15.20
2022-10-17T18:17:42.650Z,15.00
2022-10-17T18:20:09.629Z,15.00
2022-10-17T18:22:36.648Z,15.00
2022-10-17T18:25:03.338Z,16.60
2022-10-17T18:27:29.999Z,14.90
2022-10-17T18:29:56.654Z,16.80
2022-10-17T18:32:23.294Z,15.60
2022-10-17T18:34:49.932Z,15.10
2022-10-17T18:37:16.555Z,15.00
2022-10-17T18:39:43.251Z,17.00
2022-10-17T18:42:11.233Z,14.80
2022-10-17T18:44:37.848Z,14.70
2022-10-17T18:47:04.694Z,14.80
2022-10-17T18:49:31.398Z,15.90
2022-10-17T18:51:59.508Z,14.50
2022-10-17T18:54:26.292Z,16.10
2022-10-17T18:56:53.668Z,15.00
2022-10-17T18:59:20.682Z,14.60
2022-10-17T19:01:47.664Z,14.80
2022-10-17T19:04:14.413Z,15.50
2022-10-17T19:06:41.419Z,14.30
2022-10-17T19:09:09.243Z,14.20
2022-10-17T19:11:36.724Z,14.20
2022-10-17T19:14:04.442Z,15.40
2022-10-17T19:16:32.940Z,15.00
2022-10-17T19:19:02.380Z,15.40
2022-10-17T19:21:28.941Z,13.90
2022-10-17T19:23:56.846Z,15.00
2022-10-17T19:26:23.726Z,15.00
2022-10-17T19:28:53.550Z,13.70
2022-10-17T19:31:26.252Z,14.60
2022-10-17T19:33:53.611Z,14.90
2022-10-17T19:36:21.554Z,14.80
2022-10-17T19:38:48.288Z,13.70
2022-10-17T19:41:15.510Z,13.80
2022-10-17T19:43:43.239Z,13.70
2022-10-17T19:46:17.217Z,13.70
2022-10-17T19:48:43.860Z,13.70
2022-10-17T19:51:11.834Z,13.60
2022-10-17T19:53:38.515Z,13.50
2022-10-17T19:56:05.292Z,13.40
2022-10-17T19:58:33.144Z,13.40
2022-10-17T20:01:03.492Z,14.30
2022-10-17T20:03:30.149Z,13.30
2022-10-17T20:05:56.841Z,13.20
2022-10-17T20:08:23.504Z,13.00
2022-10-17T20:10:50.140Z,13.50
2022-10-17T20:13:16.773Z,13.10
2022-10-17T20:15:53.020Z,14.50
2022-10-17T20:18:19.750Z,12.90
2022-10-17T20:20:46.332Z,12.90
2022-10-17T20:23:12.904Z,14.50
2022-10-17T20:25:39.533Z,13.50
2022-10-17T20:28:06.570Z,13.20
2022-10-17T20:30:33.142Z,13.20
2022-10-17T20:32:59.765Z,14.40
2022-10-17T20:35:26.419Z,14.30
2022-10-17T20:37:53.219Z,13.00
2022-10-17T20:40:35.802Z,14.70
2022-10-17T20:43:03.915Z,13.00
2022-10-17T20:45:44.157Z,14.00
2022-10-17T20:48:17.631Z,14.20
2022-10-17T20:50:44.412Z,13.10
2022-10-17T20:53:35.492Z,13.00
2022-10-17T20:56:02.612Z,14.30
2022-10-17T20:58:29.303Z,13.00
2022-10-17T21:00:55.968Z,13.10
2022-10-17T21:03:22.604Z,14.40
2022-10-17T21:05:49.170Z,12.90
2022-10-17T21:08:15.799Z,13.60
2022-10-17T21:10:42.437Z,15.20
2022-10-17T21:13:09.032Z,12.90
2022-10-17T21:15:35.793Z,14.10
2022-10-17T21:18:02.429Z,13.00
2022-10-17T21:20:29.070Z,13.40
2022-10-17T21:22:57.309Z,13.60
2022-10-17T21:25:23.946Z,12.80
2022-10-17T21:27:52.180Z,14.20
2022-10-17T21:30:19.874Z,12.80
2022-10-17T21:32:51.660Z,12.70
2022-10-17T21:35:18.566Z,12.70
2022-10-17T21:37:45.169Z,12.70
2022-10-17T21:40:12.210Z,12.80
2022-10-17T21:42:38.831Z,12.80
2022-10-17T21:45:15.261Z,12.80
2022-10-17T21:48:11.092Z,12.70
2022-10-17T21:50:33.374Z,14.70
2022-10-17T21:52:59.990Z,14.40
2022-10-17T21:55:26.580Z,13.40
2022-10-17T21:57:53.206Z,13.40
2022-10-17T22:00:19.867Z,13.10
2022-10-17T22:02:46.453Z,13.00
2022-10-17T22:05:13.056Z,13.10
2022-10-17T22:07:39.655Z,14.00
2022-10-17T22:10:06.440Z,14.50
2022-10-17T22:12:33.271Z,12.90
2022-10-17T22:15:00.006Z,14.00
2022-10-17T22:17:26.585Z,13.60
2022-10-17T22:19:53.210Z,12.90
2022-10-17T22:22:19.796Z,12.80
2022-10-17T22:24:46.417Z,12.80
2022-10-17T22:27:13.144Z,14.00
2022-10-17T22:29:39.782Z,13.10
2022-10-17T22:32:06.409Z,13.00
2022-10-17T22:34:33.007Z,15.00
2022-10-17T22:36:59.566Z,12.60
2022-10-17T22:39:26.191Z,14.00
2022-10-17T22:41:52.774Z,12.50
2022-10-17T22:44:19.376Z,12.50
2022-10-17T22:46:45.949Z,12.60
2022-10-17T22:49:12.590Z,14.50
2022-10-17T22:51:39.343Z,12.40
2022-10-17T22:54:06.133Z,14.00
2022-10-17T22:56:32.716Z,12.70
2022-10-17T22:58:59.373Z,12.70
2022-10-17T23:01:26.151Z,14.00
2022-10-17T23:03:53.214Z,12.60
2022-10-17T23:06:19.944Z,12.60
2022-10-17T23:08:46.874Z,12.60
2022-10-17T23:11:13.528Z,12.60
2022-10-17T23:13:41.034Z,13.80
2022-10-17T23:16:08.222Z,12.60
2022-10-17T23:18:35.020Z,12.70
2022-10-17T23:21:01.812Z,12.80
2022-10-17T23:23:28.424Z,12.60
2022-10-17T23:25:55.088Z,12.60
2022-10-17T23:28:21.832Z,12.70
2022-10-17T23:30:48.405Z,13.00
2022-10-17T23:33:15.036Z,12.60
2022-10-17T23:35:41.861Z,14.50
2022-10-17T23:38:08.982Z,12.60
2022-10-17T23:40:35.609Z,12.60
2022-10-17T23:43:02.814Z,12.60
2022-10-17T23:45:33.401Z,12.90
2022-10-17T23:48:04.280Z,12.90
2022-10-17T23:50:30.883Z,12.40
2022-10-17T23:52:57.523Z,13.30
2022-10-17T23:55:24.194Z,12.30
2022-10-17T23:57:50.763Z,12.30
